createdAt,value
2022-12-31T00:00:22.228Z,3.70
2022-12-31T00:05:34.765Z,0.80
2022-12-31T00:10:46.831Z,1.50
2022-12-31T00:15:55.578Z,1.43
2022-12-31T00:21:05.582Z,1.27
2022-12-31T00:26:17.962Z,1.07
2022-12-31T00:31:29.924Z,0.83
2022-12-31T00:36:44.903Z,0.90
2022-12-31T00:41:54.346Z,0.97
2022-12-31T00:47:04.617Z,0.77
2022-12-31T00:52:14.561Z,0.87
2022-12-31T00:57:22.980Z,0.90
2022-12-31T01:02:35.972Z,0.90
2022-12-31T01:07:45.746Z,1.27
2022-12-31T01:12:54.381Z,1.17
2022-12-31T01:18:03.340Z,1.00
2022-12-31T01:23:12.039Z,1.00
2022-12-31T01:28:18.969Z,0.90
2022-12-31T01:33:28.657Z,0.80
2022-12-31T01:38:39.333Z,0.90
2022-12-31T01:43:50.657Z,0.67
2022-12-31T01:49:02.235Z,0.90
2022-12-31T01:54:14.228Z,0.87
2022-12-31T01:59:24.282Z,0.90
2022-12-31T02:04:32.489Z,0.60
2022-12-31T02:09:43.632Z,0.90
2022-12-31T02:14:54.093Z,0.90
2022-12-31T02:20:05.123Z,0.90
2022-12-31T02:25:19.428Z,0.80
2022-12-31T02:30:32.317Z,1.03
2022-12-31T02:35:40.969Z,0.90
2022-12-31T02:40:49.463Z,0.90
2022-12-31T02:45:59.443Z,0.80
2022-12-31T02:51:05.912Z,0.80
2022-12-31T02:56:16.593Z,0.97
2022-12-31T03:01:30.496Z,0.80
2022-12-31T03:06:38.039Z,0.90
2022-12-31T03:11:46.553Z,1.00
2022-12-31T03:16:53.737Z,0.80
2022-12-31T03:22:03.831Z,0.73
2022-12-31T03:27:11.596Z,0.90
2022-12-31T03:32:18.757Z,0.80
2022-12-31T03:37:26.727Z,1.00
2022-12-31T03:42:35.182Z,0.80
2022-12-31T03:47:43.631Z,0.80
2022-12-31T03:52:51.542Z,0.80
2022-12-31T03:57:59.003Z,0.80
2022-12-31T04:03:08.614Z,0.70
2022-12-31T04:08:16.987Z,0.80
2022-12-31T04:13:25.884Z,0.80
2022-12-31T04:18:33.876Z,0.90
2022-12-31T04:23:43.669Z,0.90
2022-12-31T04:28:51.626Z,0.80
2022-12-31T04:33:59.753Z,0.80
2022-12-31T04:39:07.441Z,0.80
2022-12-31T04:44:15.549Z,0.70
2022-12-31T04:49:23.691Z,0.90
2022-12-31T04:54:33.493Z,0.87
2022-12-31T04:59:40.980Z,0.93
2022-12-31T05:04:51.017Z,0.80
2022-12-31T05:09:59.389Z,1.10
2022-12-31T05:15:07.949Z,1.00
2022-12-31T05:20:17.329Z,1.10
2022-12-31T05:25:26.375Z,0.90
2022-12-31T05:30:34.469Z,0.87
2022-12-31T05:35:42.617Z,1.17
2022-12-31T05:40:50.622Z,1.20
2022-12-31T05:46:02.503Z,3.23
2022-12-31T05:51:09.722Z,1.60
2022-12-31T05:56:19.967Z,3.07
2022-12-31T06:01:28.031Z,0.80
2022-12-31T06:06:36.110Z,5.73
2022-12-31T06:11:46.014Z,1.20
2022-12-31T06:16:53.253Z,5.23
2022-12-31T06:22:02.494Z,1.10
2022-12-31T06:27:10.717Z,1.20
2022-12-31T06:32:18.938Z,4.40
2022-12-31T06:37:26.677Z,8.40
2022-12-31T06:42:35.317Z,8.80
2022-12-31T06:47:42.660Z,2.00
2022-12-31T06:52:50.849Z,1.27
2022-12-31T06:57:59.413Z,1.27
2022-12-31T07:03:13.710Z,1.40
2022-12-31T07:08:26.722Z,1.57
2022-12-31T07:13:37.280Z,12.27
2022-12-31T07:18:48.190Z,15.23
2022-12-31T07:23:58.799Z,11.83
2022-12-31T07:29:12.042Z,4.23
2022-12-31T07:34:23.953Z,15.20
2022-12-31T07:39:35.638Z,14.27
2022-12-31T07:44:54.959Z,8.63
2022-12-31T07:50:16.238Z,12.47
2022-12-31T07:55:30.493Z,5.53
2022-12-31T08:01:00.357Z,10.67
2022-12-31T08:18:00.530Z,3.07
2022-12-31T08:23:25.194Z,2.70
2022-12-31T08:28:53.738Z,0.83
2022-12-31T08:34:22.923Z,0.90
2022-12-31T08:39:46.345Z,0.97
2022-12-31T08:45:08.766Z,1.00
2022-12-31T08:50:35.770Z,3.73
2022-12-31T08:55:48.135Z,1.60
2022-12-31T09:01:01.186Z,1.30
2022-12-31T09:06:12.966Z,0.93
2022-12-31T09:11:35.978Z,2.23
2022-12-31T09:17:11.943Z,2.50
2022-12-31T09:22:50.630Z,2.03
2022-12-31T09:28:34.286Z,1.33
2022-12-31T09:34:17.484Z,0.80
2022-12-31T09:40:22.918Z,1.10
2022-12-31T09:45:53.722Z,0.80
2022-12-31T09:51:37.075Z,1.20
2022-12-31T09:57:11.275Z,0.97
2022-12-31T10:02:41.188Z,1.10
2022-12-31T10:08:06.432Z,1.40
2022-12-31T10:13:27.917Z,1.27
2022-12-31T10:18:59.482Z,1.63
2022-12-31T10:24:21.882Z,1.20
2022-12-31T10:29:41.075Z,1.10
2022-12-31T10:35:17.607Z,2.57
2022-12-31T10:46:26.111Z,3.30
2022-12-31T10:51:48.573Z,0.67
2022-12-31T10:57:21.198Z,0.87
2022-12-31T11:02:42.121Z,0.63
2022-12-31T11:07:57.339Z,0.80
2022-12-31T11:13:13.987Z,0.60
2022-12-31T11:18:29.300Z,0.60
2022-12-31T11:23:39.087Z,0.60
2022-12-31T11:28:49.080Z,1.07
2022-12-31T11:33:59.160Z,0.80
2022-12-31T11:39:09.287Z,0.50
2022-12-31T11:44:19.624Z,0.50
2022-12-31T11:49:27.636Z,0.80
2022-12-31T11:54:37.652Z,1.53
2022-12-31T11:59:44.710Z,0.40
2022-12-31T12:04:54.042Z,0.50
2022-12-31T12:10:04.210Z,0.63
2022-12-31T12:15:13.888Z,0.60
2022-12-31T12:20:23.708Z,0.50
2022-12-31T12:25:33.586Z,0.50
2022-12-31T12:30:41.579Z,0.60
2022-12-31T12:35:49.440Z,0.70
2022-12-31T12:40:59.323Z,0.50
2022-12-31T12:46:09.525Z,0.50
2022-12-31T12:51:19.487Z,0.60
2022-12-31T12:56:30.798Z,0.60
2022-12-31T13:01:40.836Z,0.60
2022-12-31T13:06:49.096Z,0.60
2022-12-31T13:12:03.902Z,0.70
2022-12-31T13:17:11.245Z,0.40
2022-12-31T13:22:21.059Z,0.50
2022-12-31T13:27:41.326Z,0.50
2022-12-31T13:32:52.759Z,0.70
2022-12-31T13:38:05.630Z,0.50
2022-12-31T13:43:14.105Z,0.70
2022-12-31T13:48:24.022Z,0.50
2022-12-31T13:53:33.876Z,0.80
2022-12-31T13:58:43.831Z,0.63
2022-12-31T14:03:51.906Z,0.57
2022-12-31T14:08:59.341Z,0.50
2022-12-31T14:14:07.849Z,0.50
2022-12-31T14:19:18.761Z,0.80
2022-12-31T14:24:26.758Z,0.50
2022-12-31T14:29:36.792Z,0.40
2022-12-31T14:34:48.053Z,0.50
2022-12-31T14:39:58.002Z,0.40
2022-12-31T14:45:07.199Z,0.50
2022-12-31T14:50:15.472Z,0.40
2022-12-31T14:55:25.365Z,0.40
2022-12-31T15:00:35.484Z,0.40
2022-12-31T15:05:45.805Z,0.57
2022-12-31T15:10:56.044Z,0.50
2022-12-31T15:16:06.186Z,0.40
2022-12-31T15:21:14.165Z,0.50
2022-12-31T15:26:24.113Z,0.50
2022-12-31T15:31:33.918Z,0.50
2022-12-31T15:36:44.063Z,0.50
2022-12-31T15:42:35.817Z,0.40
2022-12-31T15:47:02.520Z,1.10
2022-12-31T15:52:13.504Z,0.57
2022-12-31T15:57:23.636Z,1.03
2022-12-31T16:02:31.183Z,0.50
2022-12-31T16:07:40.034Z,0.80
2022-12-31T16:12:47.258Z,4.27
2022-12-31T16:17:57.199Z,0.53
2022-12-31T16:23:05.899Z,1.57
2022-12-31T16:28:15.839Z,0.60
2022-12-31T16:33:24.371Z,0.70
2022-12-31T16:38:34.488Z,0.60
2022-12-31T16:43:43.671Z,0.60
2022-12-31T16:48:53.784Z,0.60
2022-12-31T16:54:03.754Z,0.50
2022-12-31T16:59:13.976Z,0.53
2022-12-31T17:04:22.368Z,0.80
2022-12-31T17:09:33.788Z,1.00
2022-12-31T17:14:43.800Z,0.60
2022-12-31T17:19:54.264Z,0.50
2022-12-31T17:25:04.367Z,0.70
2022-12-31T17:30:14.364Z,1.30
2022-12-31T17:35:24.695Z,0.60
2022-12-31T17:40:50.987Z,0.60
2022-12-31T17:45:45.358Z,0.47
2022-12-31T17:50:55.254Z,0.50
2022-12-31T17:56:05.586Z,0.70
2022-12-31T18:01:15.678Z,0.60
2022-12-31T18:06:22.909Z,0.60
2022-12-31T18:11:30.125Z,0.93
2022-12-31T18:16:37.173Z,0.60
2022-12-31T18:21:45.207Z,0.47
2022-12-31T18:26:53.884Z,0.50
2022-12-31T18:32:00.809Z,0.70
2022-12-31T18:37:15.189Z,1.80
2022-12-31T18:42:21.478Z,1.10
2022-12-31T18:47:32.746Z,0.80
2022-12-31T18:52:37.628Z,0.80
2022-12-31T18:57:45.084Z,1.20
2022-12-31T19:02:52.092Z,0.40
2022-12-31T19:07:59.624Z,1.03
2022-12-31T19:13:06.912Z,0.67
2022-12-31T19:18:14.054Z,0.50
2022-12-31T19:23:22.931Z,0.60
2022-12-31T19:28:30.604Z,0.50
2022-12-31T19:33:38.269Z,0.60
2022-12-31T19:38:46.437Z,0.60
2022-12-31T19:43:53.751Z,0.50
2022-12-31T19:49:00.771Z,0.60
2022-12-31T19:54:08.075Z,0.40
2022-12-31T19:59:14.966Z,0.40
2022-12-31T20:04:22.181Z,0.30
2022-12-31T20:09:29.346Z,0.60
2022-12-31T20:14:36.622Z,0.70
2022-12-31T20:19:45.482Z,1.27
2022-12-31T20:24:52.918Z,0.60
2022-12-31T20:30:00.249Z,0.83
2022-12-31T20:35:07.807Z,0.83
2022-12-31T20:40:15.400Z,0.60
2022-12-31T20:45:22.833Z,0.80
2022-12-31T20:50:29.736Z,0.60
2022-12-31T20:55:38.708Z,0.70
2022-12-31T21:00:49.339Z,0.50
2022-12-31T21:05:56.999Z,0.50
2022-12-31T21:11:07.189Z,0.50
2022-12-31T21:16:14.077Z,0.40
2022-12-31T21:21:22.923Z,0.60
2022-12-31T21:26:30.963Z,0.50
2022-12-31T21:31:38.055Z,0.40
2022-12-31T21:36:45.273Z,0.50
2022-12-31T21:41:52.588Z,0.50
2022-12-31T21:47:34.414Z,0.50
2022-12-31T21:52:15.574Z,0.50
2022-12-31T21:57:23.713Z,0.50
2022-12-31T22:02:32.585Z,0.50
2022-12-31T22:07:40.206Z,0.50
2022-12-31T22:12:47.524Z,0.50
2022-12-31T22:17:54.868Z,2.13
2022-12-31T22:23:02.778Z,0.50
2022-12-31T22:28:38.718Z,0.50
2022-12-31T22:33:58.915Z,0.50
2022-12-31T22:39:08.672Z,0.43
2022-12-31T22:44:16.905Z,0.67
2022-12-31T22:49:24.039Z,0.50
2022-12-31T22:54:31.064Z,1.03
2022-12-31T22:59:37.942Z,0.57
2022-12-31T23:04:46.785Z,0.50
2022-12-31T23:09:55.336Z,1.20
2022-12-31T23:15:04.138Z,0.53
2022-12-31T23:20:15.742Z,0.50
2022-12-31T23:31:37.180Z,0.40
2022-12-31T23:36:47.342Z,0.40
2022-12-31T23:41:56.516Z,0.50
2022-12-31T23:47:03.405Z,1.00
2022-12-31T23:52:10.915Z,0.50
2022-12-31T23:57:17.826Z,0.50
